Time;durP1;ratioP1;P1;durP2;ratioP2;P2;SDS_P1;SDS_P2;PMS_P1;PMS_P2;Temp;Humidity;BMP_temperature;BMP_pressure;BME280_temperature;BME280_humidity;BME280_pressure;Samples;Min_cycle;Max_cycle;Signal;HPM_P1;HPM_P2
2022/02/15 00:00:34;;;;;;;9.23;8.63;;;6.70;99.90;;;;;;4975880;28;20185;-66
2022/02/15 00:02:59;;;;;;;12.43;8.80;;;6.80;99.90;;;;;;4976085;28;20178;-67
2022/02/15 00:05:25;;;;;;;9.80;9.20;;;6.80;99.90;;;;;;4975393;28;20221;-67
2022/02/15 00:07:50;;;;;;;10.37;9.63;;;6.80;99.90;;;;;;4975910;28;20216;-67
2022/02/15 00:10:16;;;;;;;9.87;8.87;;;6.80;99.90;;;;;;4990825;28;20177;-67
2022/02/15 00:12:42;;;;;;;8.70;7.90;;;6.80;99.90;;;;;;4974414;28;20232;-67
2022/02/15 00:15:09;;;;;;;8.50;7.87;;;6.90;99.90;;;;;;4975747;28;20201;-67
2022/02/15 00:17:37;;;;;;;9.53;7.60;;;6.80;99.90;;;;;;4975491;28;20170;-67
2022/02/15 00:20:05;;;;;;;13.23;8.90;;;6.80;99.90;;;;;;4975605;28;20534;-67
2022/02/15 00:22:31;;;;;;;10.00;9.00;;;6.70;99.90;;;;;;4990303;28;20181;-66
2022/02/15 00:24:56;;;;;;;9.63;8.77;;;6.70;99.90;;;;;;4974443;28;20220;-66
2022/02/15 00:27:22;;;;;;;8.83;8.07;;;6.70;99.90;;;;;;4975185;28;20201;-66
2022/02/15 00:29:48;;;;;;;9.60;8.90;;;6.70;99.90;;;;;;4975605;28;20173;-67
2022/02/15 00:32:13;;;;;;;9.80;8.83;;;6.80;99.90;;;;;;4975019;28;20216;-67
2022/02/15 00:34:39;;;;;;;10.20;9.10;;;6.80;99.90;;;;;;4975355;28;20201;-66
2022/02/15 00:37:05;;;;;;;9.63;8.80;;;6.80;99.90;;;;;;4973729;28;20180;-67
2022/02/15 00:39:30;;;;;;;10.70;8.53;;;6.90;99.90;;;;;;4975326;28;20236;-66
2022/02/15 00:41:56;;;;;;;8.60;8.07;;;7.00;99.90;;;;;;4989239;28;20613;-67
2022/02/15 00:44:23;;;;;;;11.77;8.37;;;7.10;99.90;;;;;;4974259;28;20212;-68
2022/02/15 00:46:49;;;;;;;8.77;7.87;;;7.10;99.90;;;;;;4974941;28;20201;-67
2022/02/15 00:49:14;;;;;;;16.57;8.27;;;7.20;99.90;;;;;;4974757;28;20186;-66
2022/02/15 00:51:40;;;;;;;8.43;7.53;;;7.30;99.90;;;;;;4973968;28;20177;-67
2022/02/15 00:54:05;;;;;;;8.97;8.00;;;7.30;99.90;;;;;;4973562;28;20174;-67
2022/02/15 00:56:31;;;;;;;8.60;7.83;;;7.30;99.90;;;;;;4974651;28;20232;-67
2022/02/15 00:58:57;;;;;;;9.03;7.53;;;7.30;99.90;;;;;;4974903;28;20252;-67
2022/02/15 01:01:22;;;;;;;7.43;6.90;;;7.40;99.90;;;;;;4989510;28;20647;-67
2022/02/15 01:03:49;;;;;;;8.67;7.93;;;7.40;99.90;;;;;;4973506;28;20205;-68
2022/02/15 01:06:15;;;;;;;8.30;7.60;;;7.50;99.90;;;;;;4974909;28;20575;-67
2022/02/15 01:08:42;;;;;;;8.93;7.47;;;7.50;99.90;;;;;;4957626;28;20687;-68
2022/02/15 01:11:09;;;;;;;8.00;7.33;;;7.50;99.90;;;;;;4974928;28;20181;-66
2022/02/15 01:13:35;;;;;;;8.33;7.57;;;7.60;99.90;;;;;;4974114;28;20181;-67
2022/02/15 01:16:01;;;;;;;13.17;7.90;;;7.60;99.90;;;;;;4974736;28;20244;-67
2022/02/15 01:18:28;;;;;;;7.80;7.30;;;7.60;99.90;;;;;;4974051;28;20186;-68
2022/02/15 01:20:54;;;;;;;9.00;7.73;;;7.70;99.90;;;;;;4972982;28;20177;-67
2022/02/15 01:23:21;;;;;;;8.40;7.87;;;7.70;99.90;;;;;;4974026;28;20190;-67
2022/02/15 01:25:46;;;;;;;9.87;8.10;;;7.70;99.90;;;;;;4973190;28;20288;-67
2022/02/15 01:28:12;;;;;;;9.27;8.40;;;7.70;99.90;;;;;;4974304;28;20292;-67
2022/02/15 01:30:38;;;;;;;9.80;8.80;;;7.70;99.90;;;;;;4973249;28;20185;-66
2022/02/15 01:33:04;;;;;;;9.00;8.30;;;7.80;99.90;;;;;;4973922;28;20178;-67
2022/02/15 01:35:29;;;;;;;9.60;8.80;;;7.80;99.90;;;;;;4973990;28;20259;-67
2022/02/15 01:37:55;;;;;;;9.97;9.03;;;7.80;99.90;;;;;;4974398;28;20213;-67
2022/02/15 01:40:21;;;;;;;10.57;8.47;;;7.80;99.90;;;;;;4973577;28;20223;-66
2022/02/15 01:42:48;;;;;;;8.70;8.00;;;7.90;99.90;;;;;;4973001;28;20272;-67
2022/02/15 01:45:17;;;;;;;9.60;8.73;;;7.80;99.90;;;;;;4972290;28;20194;-67
2022/02/15 01:47:45;;;;;;;9.17;8.27;;;7.80;99.90;;;;;;4974032;28;20201;-67
2022/02/15 01:50:11;;;;;;;8.90;7.93;;;7.90;99.90;;;;;;4974131;28;20169;-67
2022/02/15 01:52:37;;;;;;;9.77;8.73;;;7.90;99.90;;;;;;4972406;28;20718;-67
2022/02/15 01:55:06;;;;;;;8.93;8.13;;;7.80;99.90;;;;;;4973891;28;20236;-67
2022/02/15 01:57:32;;;;;;;9.20;8.20;;;7.90;99.90;;;;;;4973620;28;20259;-68
2022/02/15 01:59:58;;;;;;;9.53;8.40;;;7.80;99.90;;;;;;4988054;28;20204;-67
2022/02/15 02:02:26;;;;;;;10.30;9.40;;;7.90;99.90;;;;;;4973343;28;20192;-68
2022/02/15 02:07:36;;;;;;;11.07;10.23;;;7.90;99.90;;;;;;4972955;28;20713;-67
2022/02/15 02:10:03;;;;;;;10.37;9.70;;;7.90;99.90;;;;;;4972666;28;20201;-68
2022/02/15 02:12:28;;;;;;;9.73;8.77;;;7.80;99.90;;;;;;4973500;28;20189;-67
2022/02/15 02:15:03;;;;;;;9.47;8.67;;;7.80;99.90;;;;;;4972458;28;20197;-67
2022/02/15 02:17:29;;;;;;;9.60;8.60;;;7.80;99.90;;;;;;4972090;28;20227;-67
2022/02/15 02:19:56;;;;;;;9.97;9.00;;;7.70;99.90;;;;;;4973680;28;20276;-67
2022/02/15 02:22:26;;;;;;;9.27;8.00;;;7.70;99.90;;;;;;4973315;28;20529;-67
2022/02/15 02:24:57;;;;;;;9.20;8.27;;;7.70;99.90;;;;;;4972144;28;20599;-67
2022/02/15 02:27:30;;;;;;;11.87;9.33;;;7.70;99.90;;;;;;4973270;28;20208;-67
2022/02/15 02:29:57;;;;;;;9.07;8.57;;;7.60;99.90;;;;;;4973364;28;20189;-67
2022/02/15 02:32:28;;;;;;;8.47;7.83;;;7.60;99.90;;;;;;4972663;28;20252;-67
2022/02/15 02:34:56;;;;;;;8.80;7.97;;;7.50;99.90;;;;;;4972116;28;20197;-67
2022/02/15 02:37:23;;;;;;;8.50;7.80;;;7.50;99.90;;;;;;4973132;28;20181;-67
2022/02/15 02:39:52;;;;;;;8.73;7.93;;;7.50;99.90;;;;;;4973397;28;20526;-66
2022/02/15 02:42:20;;;;;;;11.83;8.40;;;7.40;99.90;;;;;;4973163;28;20196;-67
2022/02/15 02:44:47;;;;;;;9.33;7.93;;;7.40;99.90;;;;;;4968827;28;20292;-67
2022/02/15 02:47:13;;;;;;;8.60;7.33;;;7.40;99.90;;;;;;4972606;28;20201;-68
2022/02/15 02:49:39;;;;;;;8.80;8.20;;;7.30;99.90;;;;;;4971393;28;20190;-67
2022/02/15 02:52:05;;;;;;;8.90;8.10;;;7.30;99.90;;;;;;4971437;28;20599;-67
2022/02/15 02:54:31;;;;;;;19.63;9.27;;;7.30;99.90;;;;;;4972801;28;20276;-67
2022/02/15 02:56:59;;;;;;;9.43;8.53;;;7.30;99.90;;;;;;4973052;28;20751;-67
2022/02/15 02:59:25;;;;;;;9.33;8.40;;;7.30;99.90;;;;;;4956056;28;20280;-67
2022/02/15 03:01:51;;;;;;;10.00;8.43;;;7.40;99.90;;;;;;4972846;28;20268;-67
2022/02/15 03:04:16;;;;;;;9.17;8.37;;;7.40;99.90;;;;;;4972466;28;20216;-67
2022/02/15 03:06:42;;;;;;;9.57;8.63;;;7.30;99.90;;;;;;4971230;28;20177;-67
2022/02/15 03:09:07;;;;;;;9.77;9.07;;;7.40;99.90;;;;;;4972870;28;20181;-67
2022/02/15 03:11:33;;;;;;;10.10;9.13;;;7.40;99.90;;;;;;4972582;28;20177;-67
2022/02/15 03:14:00;;;;;;;9.80;8.70;;;7.40;99.90;;;;;;4971167;28;20181;-67
2022/02/15 03:16:26;;;;;;;9.37;8.53;;;7.40;99.90;;;;;;4971137;28;20173;-67
2022/02/15 03:18:51;;;;;;;9.47;8.53;;;7.40;99.90;;;;;;4972322;28;20269;-67
2022/02/15 03:21:17;;;;;;;8.90;8.10;;;7.40;99.90;;;;;;4972632;28;20256;-67
2022/02/15 03:23:44;;;;;;;9.17;8.27;;;7.40;99.90;;;;;;4971152;28;20188;-67
2022/02/15 03:26:10;;;;;;;8.73;8.00;;;7.30;99.90;;;;;;4972501;28;20707;-67
2022/02/15 03:28:36;;;;;;;9.47;8.57;;;7.30;99.90;;;;;;4972229;28;20570;-67
2022/02/15 03:31:04;;;;;;;9.27;8.47;;;7.30;99.90;;;;;;4972763;28;20654;-67
2022/02/15 03:33:29;;;;;;;8.67;7.93;;;7.30;99.90;;;;;;4972055;28;20235;-67
2022/02/15 03:35:55;;;;;;;9.37;8.47;;;7.30;99.90;;;;;;4972320;28;20803;-67
2022/02/15 03:38:20;;;;;;;10.33;8.80;;;7.30;99.90;;;;;;4971325;28;20655;-67
2022/02/15 03:43:30;;;;;;;9.17;8.27;;;7.30;99.90;;;;;;4971698;28;20188;-67
2022/02/15 03:45:56;;;;;;;8.63;7.93;;;7.30;99.90;;;;;;4971014;28;20205;-67
2022/02/15 03:48:22;;;;;;;8.80;8.10;;;7.20;99.90;;;;;;4972180;28;20212;-67
2022/02/15 03:50:48;;;;;;;9.10;8.40;;;7.10;99.90;;;;;;4972452;28;20260;-67
2022/02/15 03:53:15;;;;;;;10.87;9.73;;;7.10;99.90;;;;;;4972183;28;20652;-66
2022/02/15 03:55:42;;;;;;;10.47;9.40;;;7.10;99.90;;;;;;4972254;28;20705;-67
2022/02/15 03:58:08;;;;;;;11.37;10.30;;;7.00;99.90;;;;;;4970762;28;20177;-67
2022/02/15 04:00:34;;;;;;;9.20;8.30;;;7.00;99.90;;;;;;4972152;28;20190;-67
2022/02/15 04:03:00;;;;;;;11.50;9.10;;;6.90;99.90;;;;;;4972197;28;20228;-67
2022/02/15 04:05:25;;;;;;;10.90;9.93;;;6.90;99.90;;;;;;4972455;28;20217;-67
2022/02/15 04:07:51;;;;;;;11.97;11.00;;;6.80;99.90;;;;;;4972353;28;20283;-67
2022/02/15 04:10:19;;;;;;;11.00;10.20;;;6.70;99.90;;;;;;4970905;28;20212;-66
2022/02/15 04:12:46;;;;;;;12.47;10.67;;;6.70;99.90;;;;;;4987300;28;20177;-67
2022/02/15 04:15:12;;;;;;;12.77;10.63;;;6.60;99.90;;;;;;4970763;28;20300;-67
2022/02/15 04:17:38;;;;;;;11.43;10.20;;;6.50;99.90;;;;;;4972229;28;20228;-67
2022/02/15 04:20:04;;;;;;;12.03;10.17;;;6.40;99.90;;;;;;4972152;28;20182;-67
2022/02/15 04:22:29;;;;;;;11.47;10.50;;;6.40;99.90;;;;;;4972018;28;20599;-67
2022/02/15 04:24:55;;;;;;;10.47;9.57;;;6.30;99.90;;;;;;4970747;28;20205;-67
2022/02/15 04:27:22;;;;;;;11.70;10.43;;;6.20;99.90;;;;;;4970574;28;20252;-67
2022/02/15 04:29:48;;;;;;;15.13;10.07;;;6.10;99.90;;;;;;4971985;28;20253;-67
2022/02/15 04:32:14;;;;;;;10.67;9.67;;;6.10;99.90;;;;;;4974512;28;20184;-67
2022/02/15 04:34:41;;;;;;;11.37;9.80;;;6.00;99.90;;;;;;4974154;28;20235;-67
2022/02/15 04:37:07;;;;;;;10.77;9.67;;;5.90;99.90;;;;;;4975796;28;20177;-67
2022/02/15 04:39:33;;;;;;;10.83;9.87;;;5.80;99.90;;;;;;4975441;28;20196;-67
2022/02/15 04:41:59;;;;;;;11.17;9.97;;;5.80;99.90;;;;;;4975536;28;20173;-67
2022/02/15 04:44:25;;;;;;;11.50;10.30;;;5.80;99.90;;;;;;4975273;28;20243;-67
2022/02/15 04:46:50;;;;;;;12.30;10.50;;;5.80;99.90;;;;;;4974375;28;20186;-67
2022/02/15 04:49:16;;;;;;;13.87;10.90;;;5.90;99.90;;;;;;4975218;28;20644;-66
2022/02/15 04:51:41;;;;;;;12.67;10.50;;;5.90;99.90;;;;;;4990388;28;20181;-67
2022/02/15 04:54:07;;;;;;;11.57;10.50;;;5.90;99.90;;;;;;4974944;28;20177;-67
2022/02/15 04:56:33;;;;;;;12.17;11.03;;;6.00;99.90;;;;;;4975034;28;20648;-67
2022/02/15 04:58:59;;;;;;;11.17;10.07;;;6.00;99.90;;;;;;4975148;28;20220;-67
2022/02/15 05:01:25;;;;;;;10.77;9.73;;;6.00;99.90;;;;;;4974870;28;20655;-67
2022/02/15 05:03:50;;;;;;;12.27;10.93;;;6.00;99.90;;;;;;4974603;28;20182;-67
2022/02/15 05:06:16;;;;;;;14.37;11.10;;;6.10;99.90;;;;;;4974863;28;20205;-67
2022/02/15 05:08:41;;;;;;;12.13;10.80;;;6.10;99.90;;;;;;4975219;28;20690;-67
2022/02/15 05:11:07;;;;;;;12.10;10.90;;;6.10;99.90;;;;;;4975124;28;20174;-67
2022/02/15 05:13:33;;;;;;;12.50;10.30;;;6.10;99.90;;;;;;4974405;28;20221;-67
2022/02/15 05:15:58;;;;;;;13.67;11.50;;;6.10;99.90;;;;;;4974984;28;20675;-67
2022/02/15 05:18:25;;;;;;;16.63;11.57;;;6.20;99.90;;;;;;4974739;28;20248;-67
2022/02/15 05:20:51;;;;;;;15.83;12.23;;;6.20;99.90;;;;;;4974778;28;20197;-66
2022/02/15 05:23:17;;;;;;;17.20;11.07;;;6.30;99.90;;;;;;4974297;28;20664;-67
2022/02/15 05:25:42;;;;;;;13.50;11.97;;;6.30;99.90;;;;;;4974539;28;20671;-67
2022/02/15 05:28:08;;;;;;;13.40;12.20;;;6.30;99.90;;;;;;4972951;28;20295;-67
2022/02/15 05:30:34;;;;;;;14.17;12.77;;;6.30;99.90;;;;;;4973220;28;20240;-67
2022/02/15 05:32:59;;;;;;;12.07;10.87;;;6.30;99.90;;;;;;4974242;28;20252;-67
2022/02/15 05:35:25;;;;;;;14.30;12.23;;;6.30;99.90;;;;;;4974225;28;20197;-67
2022/02/15 05:37:51;;;;;;;12.17;11.03;;;6.40;99.90;;;;;;4989353;28;20232;-67
2022/02/15 05:40:17;;;;;;;12.60;11.30;;;6.40;99.90;;;;;;4974377;28;20547;-67
2022/02/15 05:42:43;;;;;;;12.93;11.73;;;6.40;99.90;;;;;;4972856;28;20549;-67
2022/02/15 05:45:09;;;;;;;14.97;12.63;;;6.40;99.90;;;;;;4973641;28;20212;-67
2022/02/15 05:47:35;;;;;;;13.90;12.00;;;6.40;99.90;;;;;;4973807;28;20228;-67
2022/02/15 05:52:46;;;;;;;13.57;11.50;;;6.40;99.90;;;;;;4973989;28;20300;-67
2022/02/15 05:55:12;;;;;;;12.63;10.73;;;6.40;99.90;;;;;;4973809;28;20197;-67
2022/02/15 05:57:38;;;;;;;12.40;11.00;;;6.30;99.90;;;;;;4973698;28;20272;-67
2022/02/15 06:00:06;;;;;;;11.30;10.30;;;6.30;99.90;;;;;;4973914;28;20196;-67
2022/02/15 06:02:32;;;;;;;10.97;10.00;;;6.30;99.90;;;;;;4973375;28;20185;-67
2022/02/15 06:04:57;;;;;;;10.93;10.13;;;6.30;99.90;;;;;;4988716;28;20221;-67
2022/02/15 06:07:23;;;;;;;9.90;9.10;;;6.30;99.90;;;;;;4973437;28;20201;-67
2022/02/15 06:09:48;;;;;;;9.20;8.40;;;6.20;99.90;;;;;;4973791;28;20182;-67
2022/02/15 06:12:14;;;;;;;9.37;8.60;;;6.20;99.90;;;;;;4973547;28;20592;-67
2022/02/15 06:14:40;;;;;;;8.60;8.00;;;6.20;99.90;;;;;;4972164;28;20273;-67
2022/02/15 06:17:06;;;;;;;8.60;7.80;;;6.10;99.90;;;;;;4974222;28;20647;-67
2022/02/15 06:19:32;;;;;;;8.37;7.80;;;6.10;99.90;;;;;;4971922;28;20189;-67
2022/02/15 06:21:57;;;;;;;8.93;8.33;;;6.10;99.90;;;;;;4973646;28;20176;-66
2022/02/15 06:24:24;;;;;;;7.83;7.23;;;6.10;99.90;;;;;;4973127;28;20624;-67
2022/02/15 06:26:50;;;;;;;7.80;7.30;;;6.10;99.90;;;;;;4973189;28;20209;-67
2022/02/15 06:29:16;;;;;;;8.20;7.50;;;6.10;99.90;;;;;;4973199;28;20205;-67
2022/02/15 06:31:42;;;;;;;8.77;8.07;;;6.00;99.90;;;;;;4973375;28;20632;-67
2022/02/15 06:34:08;;;;;;;9.43;8.47;;;6.00;99.90;;;;;;4973011;28;20216;-67
2022/02/15 06:36:33;;;;;;;9.73;8.93;;;6.00;99.90;;;;;;4973357;28;20185;-67
2022/02/15 06:38:59;;;;;;;10.17;9.27;;;6.10;99.90;;;;;;4973490;28;20189;-67
2022/02/15 06:41:25;;;;;;;11.37;10.23;;;6.10;99.90;;;;;;4972818;28;20185;-67
2022/02/15 06:43:52;;;;;;;12.17;11.07;;;6.10;99.90;;;;;;4972709;28;20208;-67
2022/02/15 06:46:18;;;;;;;11.73;10.67;;;6.10;99.90;;;;;;4973078;28;20212;-67
2022/02/15 06:48:44;;;;;;;14.40;11.90;;;6.10;99.90;;;;;;4972998;28;20213;-67
2022/02/15 06:51:09;;;;;;;15.00;13.30;;;6.20;99.90;;;;;;4972975;28;20655;-67
2022/02/15 06:53:35;;;;;;;15.77;12.40;;;6.10;99.90;;;;;;4972130;28;20190;-67
2022/02/15 06:56:00;;;;;;;14.53;13.07;;;6.20;99.90;;;;;;4972990;28;20288;-66
2022/02/15 06:58:26;;;;;;;22.47;14.73;;;6.20;99.90;;;;;;4971634;28;20177;-67
2022/02/15 07:00:52;;;;;;;18.60;13.67;;;6.20;99.90;;;;;;4987268;28;20471;-67
2022/02/15 07:03:17;;;;;;;17.07;13.93;;;6.20;99.90;;;;;;4971789;28;20552;-68
2022/02/15 07:05:43;;;;;;;20.40;14.83;;;6.20;99.90;;;;;;4972484;28;20221;-68
2022/02/15 07:08:09;;;;;;;16.37;14.67;;;6.20;99.90;;;;;;4971329;28;20289;-68
2022/02/15 07:10:36;;;;;;;18.47;16.27;;;6.30;99.90;;;;;;4972384;28;20173;-67
2022/02/15 07:13:02;;;;;;;17.17;15.20;;;6.30;99.90;;;;;;4972344;28;20189;-67
2022/02/15 07:15:28;;;;;;;20.90;16.27;;;6.30;99.90;;;;;;4971252;28;20201;-67
2022/02/15 07:17:56;;;;;;;18.07;16.17;;;6.30;99.90;;;;;;4971933;28;20216;-67
2022/02/15 07:20:22;;;;;;;16.93;15.17;;;6.40;99.90;;;;;;4970454;28;20188;-67
2022/02/15 07:22:47;;;;;;;18.93;15.40;;;6.40;99.90;;;;;;4972053;28;20181;-67
2022/02/15 07:25:14;;;;;;;21.37;15.27;;;6.40;99.90;;;;;;4972448;28;20209;-67
2022/02/15 07:27:40;;;;;;;24.20;15.70;;;6.40;99.90;;;;;;4972232;28;20216;-67
2022/02/15 07:30:06;;;;;;;20.13;15.33;;;6.50;99.90;;;;;;4971131;28;20240;-67
2022/02/15 07:32:32;;;;;;;21.73;14.57;;;6.50;99.90;;;;;;4972219;28;20658;-67
2022/02/15 07:34:58;;;;;;;20.63;15.47;;;6.60;99.90;;;;;;4970849;28;20210;-67
2022/02/15 07:37:26;;;;;;;22.77;16.87;;;6.60;99.90;;;;;;4972115;28;20177;-68
2022/02/15 07:39:52;;;;;;;24.17;15.63;;;6.60;99.90;;;;;;4972187;28;20185;-67
2022/02/15 07:42:18;;;;;;;19.20;14.93;;;6.70;99.90;;;;;;4971983;28;20606;-67
2022/02/15 07:44:44;;;;;;;19.80;16.73;;;6.60;99.90;;;;;;4971341;28;20232;-67
2022/02/15 07:47:10;;;;;;;22.00;16.63;;;6.60;99.90;;;;;;4971154;28;20228;-67
2022/02/15 07:49:36;;;;;;;23.73;17.50;;;6.70;99.90;;;;;;4971743;28;20185;-67
2022/02/15 07:52:02;;;;;;;18.70;16.63;;;6.80;99.90;;;;;;4972174;28;20653;-67
2022/02/15 07:54:28;;;;;;;22.27;16.83;;;6.80;99.90;;;;;;4971908;28;20220;-67
2022/02/15 07:56:54;;;;;;;23.57;15.70;;;6.80;99.90;;;;;;4971188;28;20185;-67
2022/02/15 07:59:19;;;;;;;25.50;17.30;;;6.80;99.90;;;;;;4971790;28;20182;-67
2022/02/15 08:01:45;;;;;;;20.90;18.53;;;6.90;99.90;;;;;;4964914;28;20272;-67
2022/02/15 08:04:13;;;;;;;21.20;16.67;;;7.00;99.90;;;;;;4971382;28;20225;-67
2022/02/15 08:06:40;;;;;;;21.70;17.70;;;7.00;99.90;;;;;;4974116;28;20513;-67
2022/02/15 08:09:06;;;;;;;24.53;17.10;;;7.00;99.90;;;;;;4974754;28;20295;-67
2022/02/15 08:11:40;;;;;;;25.53;17.00;;;7.00;99.90;;;;;;4975317;28;20639;-67
2022/02/15 08:14:05;;;;;;;21.93;17.57;;;7.00;99.90;;;;;;4974551;28;20192;-67
2022/02/15 08:16:31;;;;;;;22.23;17.00;;;7.10;99.90;;;;;;4975840;28;20632;-67
2022/02/15 08:18:56;;;;;;;22.60;18.33;;;7.10;99.90;;;;;;4975694;28;20189;-67
2022/02/15 08:21:22;;;;;;;20.33;17.13;;;7.10;99.90;;;;;;4975490;28;20228;-67
2022/02/15 08:23:48;;;;;;;17.80;15.80;;;7.10;99.90;;;;;;4975094;28;20217;-67
2022/02/15 08:26:13;;;;;;;21.70;16.43;;;7.10;99.90;;;;;;4975400;28;20208;-67
2022/02/15 08:28:43;;;;;;;17.27;15.43;;;7.10;99.90;;;;;;4975440;28;20596;-67
2022/02/15 08:31:10;;;;;;;17.87;14.23;;;7.10;99.90;;;;;;4975112;28;20188;-67
2022/02/15 08:33:37;;;;;;;16.83;14.97;;;7.10;99.90;;;;;;4973456;28;20188;-66
2022/02/15 08:36:04;;;;;;;15.20;13.60;;;7.20;99.90;;;;;;4975399;28;20197;-67
2022/02/15 08:38:33;;;;;;;15.17;13.63;;;7.20;99.90;;;;;;4975304;28;20220;-67
2022/02/15 08:40:59;;;;;;;16.80;14.30;;;7.30;99.90;;;;;;4975248;28;20185;-67
2022/02/15 08:43:25;;;;;;;14.20;12.80;;;7.40;99.90;;;;;;4973734;28;20193;-67
2022/02/15 08:45:51;;;;;;;17.40;13.17;;;7.40;99.90;;;;;;4974969;28;20214;-66
2022/02/15 08:48:17;;;;;;;16.63;14.13;;;7.60;99.90;;;;;;4973524;28;20213;-67
2022/02/15 08:50:42;;;;;;;12.50;11.30;;;7.60;99.90;;;;;;4990127;28;20177;-67
2022/02/15 08:53:08;;;;;;;14.30;13.00;;;7.70;99.90;;;;;;4989702;28;20221;-67
2022/02/15 08:55:34;;;;;;;12.10;11.00;;;7.70;99.90;;;;;;4974487;28;20202;-66
2022/02/15 08:58:00;;;;;;;11.63;10.47;;;7.70;99.90;;;;;;4972566;28;20213;-67
2022/02/15 09:00:25;;;;;;;12.87;11.50;;;7.60;99.90;;;;;;4972961;28;20533;-66
2022/02/15 09:02:51;;;;;;;11.80;10.73;;;7.70;99.90;;;;;;4974775;28;20280;-67
2022/02/15 09:05:17;;;;;;;10.90;9.63;;;7.70;99.90;;;;;;4973257;28;20233;-66
2022/02/15 09:07:42;;;;;;;11.60;10.50;;;7.70;99.90;;;;;;4974418;28;20628;-67
2022/02/15 09:10:08;;;;;;;13.50;12.30;;;7.80;99.90;;;;;;4974811;28;20185;-67
2022/02/15 09:12:34;;;;;;;13.60;12.33;;;7.80;99.90;;;;;;4974100;28;20446;-67
2022/02/15 09:15:00;;;;;;;14.47;13.23;;;7.90;99.90;;;;;;4974261;28;20197;-67
2022/02/15 09:17:26;;;;;;;12.67;11.43;;;7.90;99.90;;;;;;4973376;28;20186;-67
2022/02/15 09:19:51;;;;;;;11.47;10.47;;;8.00;99.90;;;;;;4989325;28;20647;-67
2022/02/15 09:22:17;;;;;;;10.90;9.90;;;7.90;99.90;;;;;;4974358;28;20193;-67
2022/02/15 09:24:44;;;;;;;18.03;11.70;;;7.90;99.90;;;;;;4973658;28;20629;-66
2022/02/15 09:27:10;;;;;;;11.80;10.60;;;8.00;99.90;;;;;;4974643;28;20205;-67
2022/02/15 09:29:36;;;;;;;12.17;11.07;;;8.10;99.90;;;;;;4973761;28;20592;-67
2022/02/15 09:32:02;;;;;;;11.23;10.07;;;8.30;99.90;;;;;;4973978;28;20188;-66
2022/02/15 09:34:27;;;;;;;10.67;9.87;;;8.40;99.90;;;;;;4988963;28;20252;-67
2022/02/15 09:36:53;;;;;;;11.70;10.50;;;8.50;99.90;;;;;;4973028;28;20185;-67
2022/02/15 09:39:19;;;;;;;11.03;9.93;;;8.50;99.90;;;;;;4972418;28;20547;-67
2022/02/15 09:41:46;;;;;;;13.30;11.90;;;8.30;99.90;;;;;;4973011;28;20326;-67
2022/02/15 09:44:11;;;;;;;12.87;11.67;;;8.20;99.90;;;;;;4973581;28;20208;-67
2022/02/15 09:46:37;;;;;;;12.77;11.57;;;8.20;99.90;;;;;;4972820;28;20331;-67
2022/02/15 09:49:03;;;;;;;13.53;12.23;;;8.20;99.90;;;;;;4972397;28;20209;-66
2022/02/15 09:51:29;;;;;;;14.37;11.77;;;8.20;99.90;;;;;;4969487;28;20226;-67
2022/02/15 09:53:56;;;;;;;14.57;13.27;;;8.20;99.90;;;;;;4964576;28;20525;-67
2022/02/15 09:56:22;;;;;;;13.57;11.80;;;8.40;99.90;;;;;;4972294;28;20182;-67
2022/02/15 09:58:48;;;;;;;12.13;11.13;;;8.50;99.90;;;;;;4974022;28;20623;-67
2022/02/15 10:01:16;;;;;;;12.23;11.10;;;8.70;99.90;;;;;;4973303;28;20189;-66
2022/02/15 10:03:59;;;;;;;15.73;12.50;;;8.90;99.90;;;;;;4972274;28;20185;-67
2022/02/15 10:06:33;;;;;;;13.37;11.47;;;9.10;99.90;;;;;;4969803;28;20189;-66
2022/02/15 10:09:00;;;;;;;11.70;10.53;;;9.30;99.90;;;;;;4964932;28;20215;-67
2022/02/15 10:11:35;;;;;;;12.67;10.30;;;9.20;99.90;;;;;;4973399;28;20177;-67
2022/02/15 10:14:01;;;;;;;12.63;10.53;;;9.20;99.90;;;;;;4973424;28;20189;-67
2022/02/15 10:16:28;;;;;;;10.93;9.93;;;9.10;99.90;;;;;;4973336;28;20177;-66
2022/02/15 10:18:58;;;;;;;11.13;10.10;;;9.10;99.90;;;;;;4972280;28;20194;-68
2022/02/15 10:21:28;;;;;;;10.83;9.87;;;9.20;99.90;;;;;;4973106;28;20188;-67
2022/02/15 10:23:54;;;;;;;10.43;9.43;;;9.30;99.90;;;;;;4973424;28;20196;-66
2022/02/15 10:26:19;;;;;;;11.50;9.97;;;9.30;99.90;;;;;;4972464;28;20632;-66
2022/02/15 10:28:46;;;;;;;11.57;9.00;;;9.20;99.90;;;;;;4972724;28;20221;-66
2022/02/15 10:31:15;;;;;;;9.93;8.93;;;9.10;99.90;;;;;;4973318;28;20185;-66
2022/02/15 10:33:45;;;;;;;9.77;9.00;;;9.10;99.90;;;;;;4971625;28;20584;-67
2022/02/15 10:36:13;;;;;;;9.43;8.50;;;8.90;99.90;;;;;;4971957;28;20680;-67
2022/02/15 10:38:39;;;;;;;9.17;8.40;;;8.70;99.90;;;;;;4973064;28;20277;-66
2022/02/15 10:41:17;;;;;;;8.53;7.83;;;8.60;99.90;;;;;;4973298;28;20197;-66
2022/02/15 10:43:48;;;;;;;8.93;8.23;;;8.40;99.90;;;;;;4972641;28;20185;-66
2022/02/15 10:46:15;;;;;;;8.03;7.27;;;8.30;99.90;;;;;;4972727;28;20288;-67
2022/02/15 10:48:42;;;;;;;7.90;7.30;;;8.20;99.90;;;;;;4972676;28;20248;-67
2022/02/15 10:51:07;;;;;;;7.67;7.17;;;8.30;99.90;;;;;;4973065;28;20198;-66
2022/02/15 10:53:34;;;;;;;10.37;9.47;;;8.40;99.90;;;;;;4972159;28;20640;-66
2022/02/15 10:56:00;;;;;;;12.83;9.80;;;8.40;99.90;;;;;;4971346;28;20229;-67
2022/02/15 10:58:28;;;;;;;11.13;9.97;;;8.40;99.90;;;;;;4972698;28;20189;-66
2022/02/15 11:00:58;;;;;;;11.40;10.33;;;8.60;99.90;;;;;;4972441;28;20585;-67
2022/02/15 11:03:24;;;;;;;8.10;7.57;;;8.80;99.90;;;;;;4972289;28;20196;-67
2022/02/15 11:05:51;;;;;;;10.03;9.03;;;9.10;99.90;;;;;;4972353;28;20220;-66
2022/02/15 11:08:19;;;;;;;8.03;7.43;;;9.60;99.90;;;;;;4972505;28;20227;-67
2022/02/15 11:11:09;;;;;;;15.27;10.30;;;9.80;99.90;;;;;;4973135;28;20170;-67
2022/02/15 11:13:36;;;;;;;10.60;7.97;;;10.20;99.90;;;;;;4970729;28;20193;-67
2022/02/15 11:16:14;;;;;;;10.80;9.03;;;10.70;99.90;;;;;;4972254;28;20672;-67
2022/02/15 11:18:40;;;;;;;15.10;10.70;;;11.00;99.90;;;;;;4972235;28;20271;-67
2022/02/15 11:21:07;;;;;;;13.80;10.07;;;11.30;99.90;;;;;;4972506;28;20196;-67
2022/02/15 11:23:36;;;;;;;16.47;11.73;;;11.50;99.90;;;;;;4972136;28;20555;-67
2022/02/15 11:26:17;;;;;;;14.30;10.17;;;11.90;99.90;;;;;;4987325;28;20205;-67
2022/02/15 11:28:50;;;;;;;14.97;10.10;;;11.90;99.90;;;;;;4972532;28;20213;-66
2022/02/15 11:31:34;;;;;;;12.70;8.40;;;12.00;99.90;;;;;;4971552;28;20181;-67
2022/02/15 11:34:04;;;;;;;17.83;11.93;;;12.20;99.90;;;;;;4970236;28;20185;-67
2022/02/15 11:36:30;;;;;;;18.67;10.87;;;12.30;99.90;;;;;;4972494;28;20189;-68
2022/02/15 11:38:57;;;;;;;9.43;8.43;;;12.30;99.90;;;;;;4970880;28;20185;-67
2022/02/15 11:41:26;;;;;;;14.60;11.93;;;12.70;99.90;;;;;;4956698;28;20209;-67
2022/02/15 11:44:05;;;;;;;9.23;7.83;;;12.70;99.90;;;;;;4966728;28;20276;-68
2022/02/15 11:46:37;;;;;;;13.57;9.07;;;13.00;99.90;;;;;;4973659;28;20458;-67
2022/02/15 11:49:14;;;;;;;12.87;9.53;;;12.80;99.90;;;;;;4975968;28;20219;-67
2022/02/15 11:51:41;;;;;;;8.47;7.67;;;12.60;99.90;;;;;;4974336;28;20232;-67
2022/02/15 11:54:12;;;;;;;8.30;6.93;;;12.70;99.90;;;;;;4976231;28;20657;-67
2022/02/15 11:56:38;;;;;;;9.87;8.23;;;12.80;99.90;;;;;;4975814;28;20276;-66
2022/02/15 11:59:31;;;;;;;11.43;9.20;;;13.00;99.90;;;;;;4976096;28;20189;-67
2022/02/15 12:01:57;;;;;;;7.13;6.53;;;12.90;99.90;;;;;;4973551;28;20213;-67
2022/02/15 12:04:23;;;;;;;8.03;6.93;;;13.00;99.90;;;;;;4975605;28;20209;-67
2022/02/15 12:06:49;;;;;;;6.83;6.13;;;13.30;99.90;;;;;;4978682;28;20176;-67
2022/02/15 12:09:16;;;;;;;8.93;8.03;;;13.60;99.90;;;;;;4975452;28;20209;-67
2022/02/15 12:11:44;;;;;;;13.27;8.60;;;14.00;99.90;;;;;;4974621;28;20327;-67
2022/02/15 12:14:13;;;;;;;8.43;7.57;;;13.90;99.90;;;;;;4975132;28;20177;-67
2022/02/15 12:16:59;;;;;;;20.47;12.37;;;13.70;99.90;;;;;;4975418;28;20268;-67
2022/02/15 12:19:31;;;;;;;7.23;6.73;;;13.30;99.90;;;;;;4970065;28;20189;-67
2022/02/15 12:21:59;;;;;;;6.80;6.10;;;13.10;99.90;;;;;;4975209;28;20181;-67
2022/02/15 12:24:25;;;;;;;7.77;7.17;;;13.30;99.90;;;;;;4974279;28;20213;-67
2022/02/15 12:26:52;;;;;;;8.33;6.57;;;13.00;99.90;;;;;;4975636;28;20198;-67
2022/02/15 12:29:18;;;;;;;6.40;6.10;;;12.90;99.90;;;;;;4973829;28;20224;-67
2022/02/15 12:31:44;;;;;;;7.83;6.63;;;13.20;99.90;;;;;;4975315;28;20186;-67
2022/02/15 12:34:11;;;;;;;6.83;6.53;;;13.50;99.90;;;;;;4974845;28;20190;-67
2022/02/15 12:36:37;;;;;;;6.80;6.20;;;13.40;99.90;;;;;;4975351;28;20177;-67
2022/02/15 12:39:07;;;;;;;5.50;5.10;;;13.50;99.90;;;;;;4973862;28;20232;-67
2022/02/15 12:41:37;;;;;;;5.70;5.20;;;13.80;99.90;;;;;;4975270;28;20616;-67
2022/02/15 12:44:05;;;;;;;5.20;4.90;;;13.70;99.90;;;;;;4973687;28;20181;-67
2022/02/15 12:46:31;;;;;;;5.83;5.20;;;13.70;99.90;;;;;;4974735;28;20561;-67
2022/02/15 12:48:58;;;;;;;5.60;5.20;;;13.70;99.90;;;;;;4974855;28;20288;-67
2022/02/15 12:51:24;;;;;;;5.43;5.10;;;13.30;99.90;;;;;;4974501;28;20174;-67